createdAt,value
2023-01-11T00:03:31.215Z,100267.00
2023-01-11T00:08:32.764Z,100268.47
2023-01-11T00:13:34.316Z,100254.81
2023-01-11T00:18:36.098Z,100254.38
2023-01-11T00:23:38.403Z,100257.72
2023-01-11T00:28:40.126Z,100252.88
2023-01-11T00:33:41.863Z,100266.50
2023-01-11T00:38:53.965Z,100258.72
2023-01-11T00:44:14.961Z,100245.91
2023-01-11T00:49:16.732Z,100235.41
2023-01-11T00:54:18.270Z,100214.38
2023-01-11T00:59:19.793Z,100213.56
2023-01-11T01:04:21.336Z,100213.16
2023-01-11T01:09:23.016Z,100222.16
2023-01-11T01:14:30.602Z,100219.44
2023-01-11T01:19:32.298Z,100220.06
2023-01-11T01:24:34.146Z,100202.16
2023-01-11T01:29:35.654Z,100206.81
2023-01-11T01:34:37.623Z,100207.22
2023-01-11T01:39:39.133Z,100211.38
2023-01-11T01:44:53.019Z,100226.69
2023-01-11T01:49:54.916Z,100234.84
2023-01-11T01:55:00.852Z,100243.22
2023-01-11T02:00:06.988Z,100234.19
2023-01-11T02:05:09.804Z,100249.97
2023-01-11T02:10:11.639Z,100242.66
2023-01-11T02:15:14.835Z,100248.31
2023-01-11T02:20:43.603Z,100252.13
2023-01-11T02:25:57.115Z,100267.75
2023-01-11T02:31:32.842Z,100258.31
2023-01-11T02:37:05.768Z,100260.19
2023-01-11T02:42:30.865Z,100253.94
2023-01-11T02:47:48.167Z,100254.47
2023-01-11T02:52:59.971Z,100265.84
2023-01-11T02:58:06.242Z,100251.84
2023-01-11T03:03:21.881Z,100229.56
2023-01-11T03:08:54.885Z,100213.16
2023-01-11T03:14:10.414Z,100208.91
2023-01-11T03:19:34.930Z,100206.72
2023-01-11T03:25:01.320Z,100197.41
2023-01-11T03:30:06.145Z,100211.66
2023-01-11T03:35:15.549Z,100210.38
2023-01-11T03:40:23.794Z,100211.31
2023-01-11T03:45:27.848Z,100216.75
2023-01-11T03:50:31.480Z,100217.31
2023-01-11T03:55:39.844Z,100220.00
2023-01-11T04:00:41.484Z,100217.44
2023-01-11T04:05:46.881Z,100212.34
2023-01-11T04:10:48.404Z,100203.28
2023-01-11T04:15:49.915Z,100197.75
2023-01-11T04:20:51.530Z,100182.75
2023-01-11T04:25:53.408Z,100181.38
2023-01-11T04:30:54.943Z,100184.41
2023-01-11T04:35:56.505Z,100177.38
2023-01-11T04:41:17.996Z,100185.66
2023-01-11T04:46:19.510Z,100172.81
2023-01-11T04:51:21.097Z,100175.47
2023-01-11T04:56:22.732Z,100170.47
2023-01-11T05:01:24.321Z,100183.06
2023-01-11T05:06:26.071Z,100168.94
2023-01-11T05:11:27.715Z,100173.72
2023-01-11T05:16:29.265Z,100150.09
2023-01-11T05:21:33.617Z,100135.22
2023-01-11T05:26:37.534Z,100131.88
2023-01-11T05:31:40.810Z,100116.59
2023-01-11T05:36:43.162Z,100121.06
2023-01-11T05:41:44.761Z,100116.44
2023-01-11T05:46:46.507Z,100109.69
2023-01-11T05:51:48.014Z,100114.56
2023-01-11T05:56:49.532Z,100111.50
2023-01-11T06:01:51.556Z,100115.22
2023-01-11T06:06:53.272Z,100114.53
2023-01-11T06:11:55.027Z,100104.94
2023-01-11T06:16:56.890Z,100114.03
2023-01-11T06:21:58.501Z,100095.34
2023-01-11T06:27:00.019Z,100100.38
2023-01-11T06:32:01.554Z,100089.53
2023-01-11T06:37:03.129Z,100080.28
2023-01-11T06:42:04.692Z,100064.03
2023-01-11T06:47:06.352Z,100054.44
2023-01-11T06:52:07.893Z,100035.41
2023-01-11T06:57:09.421Z,100035.84
2023-01-11T07:02:10.991Z,100031.47
2023-01-11T07:07:12.512Z,100025.59
2023-01-11T07:12:14.027Z,100022.66
2023-01-11T07:17:15.631Z,100022.97
2023-01-11T07:22:17.962Z,100015.97
2023-01-11T07:27:22.676Z,100018.34
2023-01-11T07:32:24.197Z,100029.13
2023-01-11T07:37:28.935Z,100028.25
2023-01-11T07:42:50.016Z,100041.13
2023-01-11T07:47:52.423Z,100035.72
2023-01-11T07:52:56.141Z,100021.13
2023-01-11T07:57:58.321Z,100030.72
2023-01-11T08:03:02.719Z,100038.00
2023-01-11T08:08:05.505Z,100047.94
2023-01-11T08:13:30.157Z,100050.91
2023-01-11T08:18:31.756Z,100059.41
2023-01-11T08:23:33.273Z,100063.69
2023-01-11T08:28:34.861Z,100077.75
2023-01-11T08:33:36.582Z,100076.44
2023-01-11T08:38:38.392Z,100080.88
2023-01-11T08:43:41.785Z,100074.41
2023-01-11T08:48:43.414Z,100092.19
2023-01-11T08:53:45.587Z,100082.63
2023-01-11T08:58:47.392Z,100081.94
2023-01-11T09:04:25.292Z,100071.88
2023-01-11T09:09:27.166Z,100066.50
2023-01-11T09:14:29.681Z,100074.03
2023-01-11T09:19:33.486Z,100079.13
2023-01-11T09:24:35.129Z,100086.81
2023-01-11T09:29:37.552Z,100095.94
2023-01-11T09:34:39.345Z,100113.06
2023-01-11T09:39:41.436Z,100116.84
2023-01-11T09:45:13.551Z,100100.09
2023-01-11T09:50:23.463Z,100106.63
2023-01-11T09:55:52.905Z,100104.63
2023-01-11T10:01:07.167Z,100114.06
2023-01-11T10:06:09.188Z,100125.13
2023-01-11T10:18:39.058Z,100129.59
2023-01-11T10:22:52.638Z,100128.97
2023-01-11T10:28:00.542Z,100123.72
2023-01-11T10:33:10.601Z,100130.94
2023-01-11T10:39:03.283Z,100122.59
2023-01-11T10:44:10.558Z,100132.09
2023-01-11T10:49:43.151Z,100141.94
2023-01-11T10:54:50.225Z,100138.38
2023-01-11T11:00:17.235Z,100146.59
2023-01-11T11:05:45.551Z,100142.34
2023-01-11T11:11:00.148Z,100122.19
2023-01-11T11:16:23.628Z,100124.28
2023-01-11T11:21:37.442Z,100127.50
2023-01-11T11:26:43.159Z,100121.22
2023-01-11T11:31:51.175Z,100129.66
2023-01-11T11:36:54.272Z,100129.19
2023-01-11T11:42:04.434Z,100133.97
2023-01-11T11:47:15.278Z,100142.66
2023-01-11T11:52:17.906Z,100139.28
2023-01-11T11:57:19.367Z,100135.94
2023-01-11T12:02:33.100Z,100148.88
2023-01-11T12:07:49.718Z,100140.06
2023-01-11T12:13:01.418Z,100144.47
2023-01-11T12:18:27.213Z,100142.59
2023-01-11T12:23:29.528Z,100141.28
2023-01-11T12:28:54.384Z,100119.84
2023-01-11T12:34:19.572Z,100129.25
2023-01-11T12:39:47.376Z,100140.66
2023-01-11T12:44:55.157Z,100158.22
2023-01-11T12:50:19.023Z,100158.75
2023-01-11T12:55:52.294Z,100196.34
2023-01-11T13:01:12.863Z,100202.50
2023-01-11T13:06:32.411Z,100202.72
2023-01-11T13:12:07.283Z,100214.56
2023-01-11T13:17:39.975Z,100212.91
2023-01-11T13:22:48.743Z,100222.56
2023-01-11T13:27:52.827Z,100225.91
2023-01-11T13:32:59.439Z,100224.81
2023-01-11T13:38:39.985Z,100239.50
2023-01-11T13:43:57.892Z,100250.16
2023-01-11T13:49:34.646Z,100261.94
2023-01-11T13:55:11.233Z,100258.13
2023-01-11T14:00:26.431Z,100277.28
2023-01-11T14:05:37.072Z,100271.38
2023-01-11T14:11:10.046Z,100268.16
2023-01-11T14:16:24.867Z,100290.66
2023-01-11T14:22:23.062Z,100289.91
2023-01-11T14:27:44.481Z,100308.44
2023-01-11T14:32:58.238Z,100313.66
2023-01-11T14:38:27.799Z,100339.56
2023-01-11T14:43:38.013Z,100348.84
2023-01-11T14:49:05.006Z,100350.50
2023-01-11T14:54:14.956Z,100356.19
2023-01-11T14:59:24.811Z,100370.97
2023-01-11T15:04:26.390Z,100385.38
2023-01-11T15:10:04.205Z,100386.50
2023-01-11T15:15:14.512Z,100397.72
2023-01-11T15:20:19.599Z,100409.56
2023-01-11T15:25:22.445Z,100412.56
2023-01-11T15:30:37.947Z,100417.66
2023-01-11T15:35:39.499Z,100426.88
2023-01-11T15:40:44.041Z,100430.47
2023-01-11T15:46:30.315Z,100434.28
2023-01-11T15:52:04.646Z,100450.28
2023-01-11T15:57:14.497Z,100463.94
2023-01-11T16:02:15.955Z,100482.00
2023-01-11T16:07:26.493Z,100498.81
2023-01-11T16:13:00.385Z,100503.63
2023-01-11T16:18:27.882Z,100512.84
2023-01-11T16:23:31.765Z,100527.56
2023-01-11T16:28:33.832Z,100533.44
2023-01-11T16:33:35.945Z,100542.88
2023-01-11T16:38:47.067Z,100561.34
2023-01-11T16:44:18.484Z,100578.59
2023-01-11T16:49:20.448Z,100582.75
2023-01-11T16:54:28.554Z,100588.13
2023-01-11T16:59:34.969Z,100572.09
2023-01-11T17:04:54.753Z,100572.34
2023-01-11T17:10:28.065Z,100570.56
2023-01-11T17:15:48.522Z,100570.94
2023-01-11T17:20:54.162Z,100587.41
2023-01-11T17:25:57.456Z,100595.25
2023-01-11T17:31:01.053Z,100616.69
2023-01-11T17:36:03.211Z,100623.25
2023-01-11T17:41:26.841Z,100624.56
2023-01-11T17:46:28.440Z,100632.56
2023-01-11T17:51:32.282Z,100632.16
2023-01-11T17:56:41.582Z,100626.56
2023-01-11T18:01:49.200Z,100631.19
2023-01-11T18:06:54.910Z,100630.19
2023-01-11T18:12:07.792Z,100642.00
2023-01-11T18:17:37.125Z,100657.97
2023-01-11T18:22:41.787Z,100658.25
2023-01-11T18:27:46.467Z,100669.19
2023-01-11T18:32:47.987Z,100683.44
2023-01-11T18:37:49.956Z,100680.91
2023-01-11T18:42:53.765Z,100683.63
2023-01-11T18:47:55.307Z,100694.88
2023-01-11T18:52:57.787Z,100698.63
2023-01-11T18:57:59.354Z,100712.50
2023-01-11T19:03:01.709Z,100730.13
2023-01-11T19:08:03.259Z,100733.69
2023-01-11T19:13:04.810Z,100745.00
2023-01-11T19:18:06.465Z,100741.38
2023-01-11T19:23:08.962Z,100746.56
2023-01-11T19:28:10.483Z,100770.75
2023-01-11T19:33:12.155Z,100776.38
2023-01-11T19:38:13.751Z,100783.41
2023-01-11T19:43:15.299Z,100790.38
2023-01-11T19:48:16.805Z,100781.75
2023-01-11T19:53:18.340Z,100773.59
2023-01-11T19:58:19.882Z,100788.03
2023-01-11T20:03:21.443Z,100786.34
2023-01-11T20:08:23.110Z,100784.00
2023-01-11T20:13:24.626Z,100789.63
2023-01-11T20:18:26.305Z,100783.63
2023-01-11T20:23:30.605Z,100794.41
2023-01-11T20:28:33.419Z,100780.63
2023-01-11T20:33:35.025Z,100791.41
2023-01-11T20:38:36.564Z,100776.50
2023-01-11T20:43:39.109Z,100775.94
2023-01-11T20:48:40.622Z,100779.16
2023-01-11T20:53:42.181Z,100777.53
2023-01-11T20:58:46.699Z,100779.22
2023-01-11T21:03:48.259Z,100774.66
2023-01-11T21:08:54.070Z,100764.69
2023-01-11T21:19:00.435Z,100763.63
2023-01-11T21:24:03.791Z,100755.00
2023-01-11T21:29:06.170Z,100748.03
2023-01-11T21:34:09.583Z,100743.06
2023-01-11T21:39:13.614Z,100753.94
2023-01-11T21:44:15.882Z,100743.06
2023-01-11T21:49:17.604Z,100739.69
2023-01-11T21:54:19.826Z,100730.97
2023-01-11T21:59:21.544Z,100733.53
2023-01-11T22:04:23.125Z,100732.63
2023-01-11T22:09:25.910Z,100741.31
2023-01-11T22:14:27.491Z,100754.50
2023-01-11T22:19:29.026Z,100745.38
2023-01-11T22:24:30.705Z,100763.78
2023-01-11T22:29:32.488Z,100770.03
2023-01-11T22:34:34.272Z,100766.50
2023-01-11T22:39:37.913Z,100765.84
2023-01-11T22:44:39.472Z,100761.22
2023-01-11T22:49:40.994Z,100758.97
2023-01-11T22:54:42.540Z,100750.44
2023-01-11T22:59:44.153Z,100756.34
2023-01-11T23:04:45.684Z,100763.47
2023-01-11T23:09:47.192Z,100768.16
2023-01-11T23:14:48.725Z,100774.69
2023-01-11T23:19:50.263Z,100767.84
2023-01-11T23:24:51.784Z,100793.03
2023-01-11T23:29:53.311Z,100789.72
2023-01-11T23:34:54.843Z,100807.44
2023-01-11T23:39:56.357Z,100822.69
2023-01-11T23:44:57.971Z,100828.88
2023-01-11T23:50:00.851Z,100835.28
2023-01-11T23:55:02.379Z,100839.41
